sensor_id;sensor_type;location;lat;lon;timestamp;P1;durP1;ratioP1;P2;durP2;ratioP2
78322;SDS011;67583;50.616;-3.404;2023-07-16T00:01:36;11.60;;;3.70;;
78322;SDS011;67583;50.616;-3.404;2023-07-16T00:04:01;16.65;;;3.97;;
78322;SDS011;67583;50.616;-3.404;2023-07-16T00:06:26;17.70;;;3.75;;
78322;SDS011;67583;50.616;-3.404;2023-07-16T00:08:52;14.98;;;3.28;;
78322;SDS011;67583;50.616;-3.404;2023-07-16T00:11:18;10.15;;;3.72;;
78322;SDS011;67583;50.616;-3.404;2023-07-16T00:13:43;17.35;;;3.53;;
78322;SDS011;67583;50.616;-3.404;2023-07-16T00:16:12;9.75;;;4.80;;
78322;SDS011;67583;50.616;-3.404;2023-07-16T00:18:38;13.40;;;3.70;;
78322;SDS011;67583;50.616;-3.404;2023-07-16T00:21:03;16.52;;;3.88;;
78322;SDS011;67583;50.616;-3.404;2023-07-16T00:23:28;11.20;;;2.92;;
78322;SDS011;67583;50.616;-3.404;2023-07-16T00:25:54;13.65;;;4.03;;
78322;SDS011;67583;50.616;-3.404;2023-07-16T00:28:19;17.45;;;4.40;;
78322;SDS011;67583;50.616;-3.404;2023-07-16T00:30:45;19.10;;;3.55;;
78322;SDS011;67583;50.616;-3.404;2023-07-16T00:33:10;20.33;;;3.97;;
78322;SDS011;67583;50.616;-3.404;2023-07-16T00:35:35;17.20;;;5.25;;
78322;SDS011;67583;50.616;-3.404;2023-07-16T00:38:01;12.02;;;3.00;;
78322;SDS011;67583;50.616;-3.404;2023-07-16T00:40:26;14.75;;;3.50;;
78322;SDS011;67583;50.616;-3.404;2023-07-16T00:42:51;14.30;;;4.78;;
78322;SDS011;67583;50.616;-3.404;2023-07-16T00:45:17;10.60;;;3.08;;
78322;SDS011;67583;50.616;-3.404;2023-07-16T00:47:43;17.48;;;3.50;;
78322;SDS011;67583;50.616;-3.404;2023-07-16T00:50:10;10.00;;;3.30;;
78322;SDS011;67583;50.616;-3.404;2023-07-16T00:52:36;11.02;;;3.53;;
78322;SDS011;67583;50.616;-3.404;2023-07-16T00:55:02;14.50;;;3.03;;
78322;SDS011;67583;50.616;-3.404;2023-07-16T00:57:28;19.58;;;4.13;;
78322;SDS011;67583;50.616;-3.404;2023-07-16T00:59:54;15.02;;;3.40;;
78322;SDS011;67583;50.616;-3.404;2023-07-16T01:02:19;10.02;;;3.65;;
78322;SDS011;67583;50.616;-3.404;2023-07-16T01:04:44;9.88;;;3.25;;
78322;SDS011;67583;50.616;-3.404;2023-07-16T01:07:11;17.40;;;4.50;;
78322;SDS011;67583;50.616;-3.404;2023-07-16T01:09:38;15.55;;;3.38;;
78322;SDS011;67583;50.616;-3.404;2023-07-16T01:12:06;11.57;;;3.25;;
78322;SDS011;67583;50.616;-3.404;2023-07-16T01:14:32;18.08;;;3.03;;
78322;SDS011;67583;50.616;-3.404;2023-07-16T01:17:02;10.10;;;3.35;;
78322;SDS011;67583;50.616;-3.404;2023-07-16T01:19:28;14.77;;;2.95;;
78322;SDS011;67583;50.616;-3.404;2023-07-16T01:22:02;16.60;;;3.30;;
78322;SDS011;67583;50.616;-3.404;2023-07-16T01:29:46;7.95;;;3.67;;
78322;SDS011;67583;50.616;-3.404;2023-07-16T01:32:19;18.42;;;3.45;;
78322;SDS011;67583;50.616;-3.404;2023-07-16T01:34:46;13.73;;;4.28;;
78322;SDS011;67583;50.616;-3.404;2023-07-16T01:37:12;11.82;;;3.17;;
78322;SDS011;67583;50.616;-3.404;2023-07-16T01:39:37;12.60;;;3.45;;
78322;SDS011;67583;50.616;-3.404;2023-07-16T01:42:02;17.38;;;3.42;;
78322;SDS011;67583;50.616;-3.404;2023-07-16T01:44:28;13.98;;;3.63;;
78322;SDS011;67583;50.616;-3.404;2023-07-16T01:46:59;12.52;;;3.88;;
78322;SDS011;67583;50.616;-3.404;2023-07-16T01:49:31;7.65;;;2.38;;
78322;SDS011;67583;50.616;-3.404;2023-07-16T01:51:56;17.92;;;3.40;;
78322;SDS011;67583;50.616;-3.404;2023-07-16T01:54:21;10.55;;;2.78;;
78322;SDS011;67583;50.616;-3.404;2023-07-16T01:56:47;18.30;;;3.95;;
78322;SDS011;67583;50.616;-3.404;2023-07-16T01:59:12;12.13;;;3.00;;
78322;SDS011;67583;50.616;-3.404;2023-07-16T02:01:38;13.45;;;3.13;;
78322;SDS011;67583;50.616;-3.404;2023-07-16T02:04:04;16.75;;;3.72;;
78322;SDS011;67583;50.616;-3.404;2023-07-16T02:06:29;14.18;;;3.38;;
78322;SDS011;67583;50.616;-3.404;2023-07-16T02:08:54;14.77;;;3.25;;
78322;SDS011;67583;50.616;-3.404;2023-07-16T02:11:20;13.88;;;2.90;;
78322;SDS011;67583;50.616;-3.404;2023-07-16T02:13:45;14.27;;;2.83;;
78322;SDS011;67583;50.616;-3.404;2023-07-16T02:16:10;15.75;;;3.53;;
78322;SDS011;67583;50.616;-3.404;2023-07-16T02:18:36;15.13;;;3.30;;
78322;SDS011;67583;50.616;-3.404;2023-07-16T02:21:01;19.88;;;3.53;;
78322;SDS011;67583;50.616;-3.404;2023-07-16T02:23:27;16.80;;;3.58;;
78322;SDS011;67583;50.616;-3.404;2023-07-16T02:25:53;14.15;;;3.35;;
78322;SDS011;67583;50.616;-3.404;2023-07-16T02:28:18;10.88;;;2.60;;
78322;SDS011;67583;50.616;-3.404;2023-07-16T02:30:43;9.15;;;2.78;;
78322;SDS011;67583;50.616;-3.404;2023-07-16T02:33:09;11.00;;;2.63;;
78322;SDS011;67583;50.616;-3.404;2023-07-16T02:35:34;7.53;;;2.85;;
78322;SDS011;67583;50.616;-3.404;2023-07-16T02:37:59;12.98;;;2.78;;
78322;SDS011;67583;50.616;-3.404;2023-07-16T02:40:25;16.33;;;3.10;;
78322;SDS011;67583;50.616;-3.404;2023-07-16T02:42:51;13.75;;;2.55;;
78322;SDS011;67583;50.616;-3.404;2023-07-16T02:45:16;13.13;;;3.47;;
78322;SDS011;67583;50.616;-3.404;2023-07-16T02:47:42;11.20;;;2.78;;
78322;SDS011;67583;50.616;-3.404;2023-07-16T02:50:07;15.80;;;3.20;;
78322;SDS011;67583;50.616;-3.404;2023-07-16T02:52:33;17.83;;;3.00;;
78322;SDS011;67583;50.616;-3.404;2023-07-16T02:54:58;13.40;;;3.08;;
78322;SDS011;67583;50.616;-3.404;2023-07-16T02:57:23;9.85;;;3.17;;
78322;SDS011;67583;50.616;-3.404;2023-07-16T02:59:49;18.92;;;3.15;;
78322;SDS011;67583;50.616;-3.404;2023-07-16T03:02:15;15.52;;;3.17;;
78322;SDS011;67583;50.616;-3.404;2023-07-16T03:04:40;12.30;;;3.05;;
78322;SDS011;67583;50.616;-3.404;2023-07-16T03:07:06;9.48;;;2.72;;
78322;SDS011;67583;50.616;-3.404;2023-07-16T03:09:32;15.63;;;4.25;;
78322;SDS011;67583;50.616;-3.404;2023-07-16T03:11:57;14.95;;;2.58;;
78322;SDS011;67583;50.616;-3.404;2023-07-16T03:14:22;8.68;;;2.28;;
78322;SDS011;67583;50.616;-3.404;2023-07-16T03:16:48;13.30;;;2.80;;
78322;SDS011;67583;50.616;-3.404;2023-07-16T03:19:13;22.42;;;3.88;;
78322;SDS011;67583;50.616;-3.404;2023-07-16T03:21:38;14.52;;;3.40;;
78322;SDS011;67583;50.616;-3.404;2023-07-16T03:24:04;9.98;;;2.47;;
78322;SDS011;67583;50.616;-3.404;2023-07-16T03:26:30;15.18;;;2.80;;
78322;SDS011;67583;50.616;-3.404;2023-07-16T03:28:55;14.43;;;3.38;;
78322;SDS011;67583;50.616;-3.404;2023-07-16T03:31:21;16.52;;;4.63;;
78322;SDS011;67583;50.616;-3.404;2023-07-16T03:33:46;20.50;;;3.63;;
78322;SDS011;67583;50.616;-3.404;2023-07-16T03:36:11;16.27;;;2.88;;
78322;SDS011;67583;50.616;-3.404;2023-07-16T03:38:37;15.57;;;2.65;;
78322;SDS011;67583;50.616;-3.404;2023-07-16T03:41:02;10.77;;;2.63;;
78322;SDS011;67583;50.616;-3.404;2023-07-16T03:43:27;9.77;;;2.75;;
78322;SDS011;67583;50.616;-3.404;2023-07-16T03:45:53;11.65;;;3.30;;
78322;SDS011;67583;50.616;-3.404;2023-07-16T03:48:18;6.60;;;2.00;;
78322;SDS011;67583;50.616;-3.404;2023-07-16T03:50:44;11.55;;;2.83;;
78322;SDS011;67583;50.616;-3.404;2023-07-16T03:53:09;4.88;;;2.75;;
78322;SDS011;67583;50.616;-3.404;2023-07-16T03:55:36;7.50;;;2.08;;
78322;SDS011;67583;50.616;-3.404;2023-07-16T03:58:01;12.07;;;2.85;;
78322;SDS011;67583;50.616;-3.404;2023-07-16T04:00:27;12.63;;;2.63;;
78322;SDS011;67583;50.616;-3.404;2023-07-16T04:02:52;8.35;;;2.25;;
78322;SDS011;67583;50.616;-3.404;2023-07-16T04:05:18;9.82;;;2.47;;
78322;SDS011;67583;50.616;-3.404;2023-07-16T04:07:44;10.93;;;2.53;;
78322;SDS011;67583;50.616;-3.404;2023-07-16T04:10:09;5.13;;;1.88;;
78322;SDS011;67583;50.616;-3.404;2023-07-16T04:12:34;10.02;;;2.40;;
78322;SDS011;67583;50.616;-3.404;2023-07-16T04:15:00;22.50;;;4.40;;
78322;SDS011;67583;50.616;-3.404;2023-07-16T04:17:26;10.50;;;1.88;;
78322;SDS011;67583;50.616;-3.404;2023-07-16T04:19:51;13.43;;;3.22;;
78322;SDS011;67583;50.616;-3.404;2023-07-16T04:22:17;11.88;;;2.03;;
78322;SDS011;67583;50.616;-3.404;2023-07-16T04:24:42;8.55;;;2.33;;
78322;SDS011;67583;50.616;-3.404;2023-07-16T04:27:08;11.05;;;2.10;;
78322;SDS011;67583;50.616;-3.404;2023-07-16T04:29:33;8.80;;;2.08;;
78322;SDS011;67583;50.616;-3.404;2023-07-16T04:31:58;10.13;;;2.13;;
78322;SDS011;67583;50.616;-3.404;2023-07-16T04:34:24;16.55;;;2.45;;
78322;SDS011;67583;50.616;-3.404;2023-07-16T04:36:49;13.80;;;3.05;;
78322;SDS011;67583;50.616;-3.404;2023-07-16T04:39:15;14.35;;;3.33;;
78322;SDS011;67583;50.616;-3.404;2023-07-16T04:41:40;8.07;;;2.47;;
78322;SDS011;67583;50.616;-3.404;2023-07-16T04:44:05;11.98;;;2.15;;
78322;SDS011;67583;50.616;-3.404;2023-07-16T04:46:31;12.45;;;2.35;;
78322;SDS011;67583;50.616;-3.404;2023-07-16T04:48:56;7.90;;;2.85;;
78322;SDS011;67583;50.616;-3.404;2023-07-16T04:51:22;13.02;;;3.65;;
78322;SDS011;67583;50.616;-3.404;2023-07-16T04:53:48;14.48;;;2.72;;
78322;SDS011;67583;50.616;-3.404;2023-07-16T04:56:14;11.63;;;2.80;;
78322;SDS011;67583;50.616;-3.404;2023-07-16T04:58:41;10.90;;;2.15;;
78322;SDS011;67583;50.616;-3.404;2023-07-16T05:01:07;7.90;;;2.47;;
78322;SDS011;67583;50.616;-3.404;2023-07-16T05:03:32;14.95;;;3.50;;
78322;SDS011;67583;50.616;-3.404;2023-07-16T05:05:58;10.30;;;2.30;;
78322;SDS011;67583;50.616;-3.404;2023-07-16T05:08:23;16.08;;;3.25;;
78322;SDS011;67583;50.616;-3.404;2023-07-16T05:10:49;10.38;;;2.58;;
78322;SDS011;67583;50.616;-3.404;2023-07-16T05:13:14;8.88;;;2.35;;
78322;SDS011;67583;50.616;-3.404;2023-07-16T05:15:40;11.65;;;2.33;;
78322;SDS011;67583;50.616;-3.404;2023-07-16T05:18:08;11.15;;;2.67;;
78322;SDS011;67583;50.616;-3.404;2023-07-16T05:20:33;14.68;;;2.47;;
78322;SDS011;67583;50.616;-3.404;2023-07-16T05:22:59;14.20;;;2.83;;
78322;SDS011;67583;50.616;-3.404;2023-07-16T05:25:24;11.00;;;2.50;;
78322;SDS011;67583;50.616;-3.404;2023-07-16T05:27:49;8.82;;;3.05;;
78322;SDS011;67583;50.616;-3.404;2023-07-16T05:30:15;11.15;;;2.83;;
78322;SDS011;67583;50.616;-3.404;2023-07-16T05:32:41;9.57;;;2.45;;
78322;SDS011;67583;50.616;-3.404;2023-07-16T05:35:06;6.85;;;2.30;;
78322;SDS011;67583;50.616;-3.404;2023-07-16T05:37:32;8.57;;;2.75;;
78322;SDS011;67583;50.616;-3.404;2023-07-16T05:39:57;7.63;;;2.00;;
78322;SDS011;67583;50.616;-3.404;2023-07-16T05:42:23;8.55;;;2.25;;
78322;SDS011;67583;50.616;-3.404;2023-07-16T05:44:48;10.57;;;2.45;;
78322;SDS011;67583;50.616;-3.404;2023-07-16T05:47:14;10.93;;;3.08;;
78322;SDS011;67583;50.616;-3.404;2023-07-16T05:49:40;13.27;;;2.85;;
78322;SDS011;67583;50.616;-3.404;2023-07-16T05:52:05;13.45;;;2.60;;
78322;SDS011;67583;50.616;-3.404;2023-07-16T05:54:31;7.22;;;2.42;;
78322;SDS011;67583;50.616;-3.404;2023-07-16T05:56:56;15.05;;;2.80;;
78322;SDS011;67583;50.616;-3.404;2023-07-16T05:59:22;11.73;;;2.22;;
78322;SDS011;67583;50.616;-3.404;2023-07-16T06:01:47;10.35;;;2.90;;
78322;SDS011;67583;50.616;-3.404;2023-07-16T06:04:13;12.70;;;2.85;;
78322;SDS011;67583;50.616;-3.404;2023-07-16T06:06:38;14.45;;;2.80;;
78322;SDS011;67583;50.616;-3.404;2023-07-16T06:09:04;9.95;;;2.88;;
78322;SDS011;67583;50.616;-3.404;2023-07-16T06:11:29;8.57;;;2.95;;
78322;SDS011;67583;50.616;-3.404;2023-07-16T06:13:54;9.57;;;2.63;;
78322;SDS011;67583;50.616;-3.404;2023-07-16T06:16:20;7.38;;;2.28;;
78322;SDS011;67583;50.616;-3.404;2023-07-16T06:18:45;7.40;;;2.58;;
78322;SDS011;67583;50.616;-3.404;2023-07-16T06:21:11;8.85;;;3.20;;
78322;SDS011;67583;50.616;-3.404;2023-07-16T06:23:36;8.10;;;2.65;;
78322;SDS011;67583;50.616;-3.404;2023-07-16T06:26:02;12.65;;;3.33;;
78322;SDS011;67583;50.616;-3.404;2023-07-16T06:28:28;11.85;;;3.28;;
78322;SDS011;67583;50.616;-3.404;2023-07-16T06:30:53;8.00;;;2.65;;
78322;SDS011;67583;50.616;-3.404;2023-07-16T06:33:19;14.80;;;3.33;;
78322;SDS011;67583;50.616;-3.404;2023-07-16T06:35:45;7.10;;;2.05;;
78322;SDS011;67583;50.616;-3.404;2023-07-16T06:38:11;12.13;;;2.35;;
78322;SDS011;67583;50.616;-3.404;2023-07-16T06:40:37;7.40;;;2.90;;
78322;SDS011;67583;50.616;-3.404;2023-07-16T06:43:03;9.00;;;2.33;;
78322;SDS011;67583;50.616;-3.404;2023-07-16T06:45:28;11.68;;;2.72;;
78322;SDS011;67583;50.616;-3.404;2023-07-16T06:47:53;13.23;;;2.50;;
78322;SDS011;67583;50.616;-3.404;2023-07-16T06:50:19;12.10;;;2.72;;
78322;SDS011;67583;50.616;-3.404;2023-07-16T06:52:44;13.15;;;2.53;;
78322;SDS011;67583;50.616;-3.404;2023-07-16T06:55:10;6.00;;;3.40;;
78322;SDS011;67583;50.616;-3.404;2023-07-16T06:57:35;7.72;;;2.30;;
78322;SDS011;67583;50.616;-3.404;2023-07-16T07:00:00;5.90;;;1.80;;
78322;SDS011;67583;50.616;-3.404;2023-07-16T07:02:26;5.18;;;2.22;;
78322;SDS011;67583;50.616;-3.404;2023-07-16T07:04:51;6.82;;;1.98;;
78322;SDS011;67583;50.616;-3.404;2023-07-16T07:07:17;8.88;;;2.70;;
78322;SDS011;67583;50.616;-3.404;2023-07-16T07:09:42;5.18;;;1.85;;
78322;SDS011;67583;50.616;-3.404;2023-07-16T07:12:08;5.40;;;1.60;;
78322;SDS011;67583;50.616;-3.404;2023-07-16T07:14:33;7.47;;;1.88;;
78322;SDS011;67583;50.616;-3.404;2023-07-16T07:16:59;4.50;;;1.85;;
78322;SDS011;67583;50.616;-3.404;2023-07-16T07:19:25;9.70;;;2.05;;
78322;SDS011;67583;50.616;-3.404;2023-07-16T07:21:50;4.00;;;2.50;;
78322;SDS011;67583;50.616;-3.404;2023-07-16T07:24:15;7.60;;;1.92;;
78322;SDS011;67583;50.616;-3.404;2023-07-16T07:26:42;7.47;;;1.80;;
78322;SDS011;67583;50.616;-3.404;2023-07-16T07:29:07;9.05;;;2.08;;
78322;SDS011;67583;50.616;-3.404;2023-07-16T07:31:33;7.28;;;1.98;;
78322;SDS011;67583;50.616;-3.404;2023-07-16T07:33:58;4.68;;;2.13;;
78322;SDS011;67583;50.616;-3.404;2023-07-16T07:36:24;4.07;;;1.52;;
78322;SDS011;67583;50.616;-3.404;2023-07-16T07:38:49;4.97;;;1.63;;
78322;SDS011;67583;50.616;-3.404;2023-07-16T07:41:15;7.68;;;1.90;;
78322;SDS011;67583;50.616;-3.404;2023-07-16T07:43:40;7.07;;;2.08;;
78322;SDS011;67583;50.616;-3.404;2023-07-16T07:46:06;3.85;;;1.80;;
78322;SDS011;67583;50.616;-3.404;2023-07-16T07:48:31;5.60;;;1.50;;
78322;SDS011;67583;50.616;-3.404;2023-07-16T07:50:57;7.05;;;1.85;;
78322;SDS011;67583;50.616;-3.404;2023-07-16T07:53:22;8.98;;;2.35;;
78322;SDS011;67583;50.616;-3.404;2023-07-16T07:55:47;4.97;;;1.98;;
78322;SDS011;67583;50.616;-3.404;2023-07-16T07:58:13;5.22;;;1.73;;
78322;SDS011;67583;50.616;-3.404;2023-07-16T08:00:38;5.18;;;1.80;;
78322;SDS011;67583;50.616;-3.404;2023-07-16T08:03:04;6.43;;;2.60;;
78322;SDS011;67583;50.616;-3.404;2023-07-16T08:05:29;7.97;;;1.90;;
78322;SDS011;67583;50.616;-3.404;2023-07-16T08:07:55;8.70;;;2.47;;
78322;SDS011;67583;50.616;-3.404;2023-07-16T08:10:21;7.22;;;1.90;;
78322;SDS011;67583;50.616;-3.404;2023-07-16T08:12:46;8.38;;;2.20;;
78322;SDS011;67583;50.616;-3.404;2023-07-16T08:15:12;6.28;;;2.08;;
78322;SDS011;67583;50.616;-3.404;2023-07-16T08:17:43;8.70;;;2.60;;
78322;SDS011;67583;50.616;-3.404;2023-07-16T08:20:09;7.35;;;2.38;;
78322;SDS011;67583;50.616;-3.404;2023-07-16T08:22:35;6.50;;;2.10;;
78322;SDS011;67583;50.616;-3.404;2023-07-16T08:25:00;5.82;;;2.50;;
78322;SDS011;67583;50.616;-3.404;2023-07-16T08:27:27;7.38;;;1.77;;
78322;SDS011;67583;50.616;-3.404;2023-07-16T08:29:52;6.18;;;2.88;;
78322;SDS011;67583;50.616;-3.404;2023-07-16T08:32:18;6.93;;;2.15;;
78322;SDS011;67583;50.616;-3.404;2023-07-16T08:34:43;6.05;;;2.03;;
78322;SDS011;67583;50.616;-3.404;2023-07-16T08:37:09;8.93;;;2.17;;
78322;SDS011;67583;50.616;-3.404;2023-07-16T08:39:34;6.60;;;2.83;;
78322;SDS011;67583;50.616;-3.404;2023-07-16T08:42:00;4.53;;;1.52;;
78322;SDS011;67583;50.616;-3.404;2023-07-16T08:44:25;7.85;;;2.13;;
78322;SDS011;67583;50.616;-3.404;2023-07-16T08:46:51;7.97;;;2.38;;
78322;SDS011;67583;50.616;-3.404;2023-07-16T08:49:17;9.73;;;2.45;;
78322;SDS011;67583;50.616;-3.404;2023-07-16T08:51:45;8.07;;;2.33;;
78322;SDS011;67583;50.616;-3.404;2023-07-16T08:54:11;7.57;;;2.15;;
78322;SDS011;67583;50.616;-3.404;2023-07-16T08:56:37;7.25;;;2.35;;
78322;SDS011;67583;50.616;-3.404;2023-07-16T08:59:02;11.45;;;2.22;;
78322;SDS011;67583;50.616;-3.404;2023-07-16T09:01:28;7.50;;;2.17;;
78322;SDS011;67583;50.616;-3.404;2023-07-16T09:03:54;6.50;;;2.70;;
78322;SDS011;67583;50.616;-3.404;2023-07-16T09:06:19;4.80;;;1.75;;
78322;SDS011;67583;50.616;-3.404;2023-07-16T09:08:45;8.07;;;2.38;;
78322;SDS011;67583;50.616;-3.404;2023-07-16T09:11:13;7.18;;;2.38;;
78322;SDS011;67583;50.616;-3.404;2023-07-16T09:13:43;9.18;;;2.20;;
78322;SDS011;67583;50.616;-3.404;2023-07-16T09:16:09;7.45;;;2.10;;
78322;SDS011;67583;50.616;-3.404;2023-07-16T09:18:34;6.35;;;1.90;;
78322;SDS011;67583;50.616;-3.404;2023-07-16T09:21:00;8.13;;;2.15;;
78322;SDS011;67583;50.616;-3.404;2023-07-16T09:23:31;6.30;;;1.52;;
78322;SDS011;67583;50.616;-3.404;2023-07-16T09:25:57;8.65;;;1.92;;
78322;SDS011;67583;50.616;-3.404;2023-07-16T09:28:22;5.93;;;2.17;;
78322;SDS011;67583;50.616;-3.404;2023-07-16T09:30:48;12.82;;;3.03;;
78322;SDS011;67583;50.616;-3.404;2023-07-16T09:33:16;6.30;;;1.98;;
78322;SDS011;67583;50.616;-3.404;2023-07-16T09:35:43;5.72;;;1.95;;
78322;SDS011;67583;50.616;-3.404;2023-07-16T09:38:09;11.57;;;2.28;;
78322;SDS011;67583;50.616;-3.404;2023-07-16T09:40:35;7.88;;;2.13;;
78322;SDS011;67583;50.616;-3.404;2023-07-16T09:43:04;8.15;;;1.80;;
78322;SDS011;67583;50.616;-3.404;2023-07-16T09:45:31;9.00;;;2.10;;
78322;SDS011;67583;50.616;-3.404;2023-07-16T09:47:56;5.93;;;2.22;;
78322;SDS011;67583;50.616;-3.404;2023-07-16T09:50:23;5.40;;;1.88;;
78322;SDS011;67583;50.616;-3.404;2023-07-16T09:52:50;7.45;;;2.10;;
78322;SDS011;67583;50.616;-3.404;2023-07-16T09:55:16;4.90;;;2.10;;
78322;SDS011;67583;50.616;-3.404;2023-07-16T09:57:42;5.15;;;1.98;;
78322;SDS011;67583;50.616;-3.404;2023-07-16T10:00:11;8.32;;;2.83;;
78322;SDS011;67583;50.616;-3.404;2023-07-16T10:02:39;3.92;;;1.65;;
78322;SDS011;67583;50.616;-3.404;2023-07-16T10:05:12;9.27;;;2.08;;
78322;SDS011;67583;50.616;-3.404;2023-07-16T10:07:42;7.97;;;2.00;;
78322;SDS011;67583;50.616;-3.404;2023-07-16T10:10:09;7.63;;;2.30;;
78322;SDS011;67583;50.616;-3.404;2023-07-16T10:12:35;5.00;;;1.77;;
78322;SDS011;67583;50.616;-3.404;2023-07-16T10:15:01;7.28;;;2.25;;
78322;SDS011;67583;50.616;-3.404;2023-07-16T10:17:30;7.88;;;2.03;;
78322;SDS011;67583;50.616;-3.404;2023-07-16T10:19:58;8.65;;;2.10;;
78322;SDS011;67583;50.616;-3.404;2023-07-16T10:22:40;6.47;;;1.90;;
78322;SDS011;67583;50.616;-3.404;2023-07-16T10:27:35;4.47;;;1.60;;
78322;SDS011;67583;50.616;-3.404;2023-07-16T10:30:01;7.30;;;1.80;;
78322;SDS011;67583;50.616;-3.404;2023-07-16T10:32:30;5.15;;;1.65;;
78322;SDS011;67583;50.616;-3.404;2023-07-16T10:34:57;3.58;;;1.50;;
78322;SDS011;67583;50.616;-3.404;2023-07-16T10:37:23;5.28;;;1.83;;
78322;SDS011;67583;50.616;-3.404;2023-07-16T10:39:50;3.90;;;1.92;;
78322;SDS011;67583;50.616;-3.404;2023-07-16T10:42:17;3.90;;;1.50;;
78322;SDS011;67583;50.616;-3.404;2023-07-16T10:44:42;6.57;;;1.85;;
78322;SDS011;67583;50.616;-3.404;2023-07-16T10:47:10;3.85;;;1.40;;
78322;SDS011;67583;50.616;-3.404;2023-07-16T10:49:45;3.50;;;1.45;;
78322;SDS011;67583;50.616;-3.404;2023-07-16T10:52:11;4.65;;;1.73;;
78322;SDS011;67583;50.616;-3.404;2023-07-16T10:54:36;2.72;;;1.77;;
78322;SDS011;67583;50.616;-3.404;2023-07-16T10:57:03;7.05;;;1.88;;
78322;SDS011;67583;50.616;-3.404;2023-07-16T10:59:29;3.97;;;1.60;;
78322;SDS011;67583;50.616;-3.404;2023-07-16T11:01:54;6.03;;;1.90;;
78322;SDS011;67583;50.616;-3.404;2023-07-16T11:04:20;9.13;;;2.22;;
78322;SDS011;67583;50.616;-3.404;2023-07-16T11:06:45;8.13;;;2.58;;
78322;SDS011;67583;50.616;-3.404;2023-07-16T11:09:10;9.55;;;2.28;;
78322;SDS011;67583;50.616;-3.404;2023-07-16T11:11:36;8.77;;;2.67;;
78322;SDS011;67583;50.616;-3.404;2023-07-16T11:14:05;8.63;;;2.35;;
78322;SDS011;67583;50.616;-3.404;2023-07-16T11:16:35;6.40;;;1.85;;
78322;SDS011;67583;50.616;-3.404;2023-07-16T11:19:03;5.28;;;1.92;;
78322;SDS011;67583;50.616;-3.404;2023-07-16T11:21:29;8.43;;;2.72;;
78322;SDS011;67583;50.616;-3.404;2023-07-16T11:23:55;6.68;;;2.50;;
78322;SDS011;67583;50.616;-3.404;2023-07-16T11:26:21;9.52;;;3.22;;
78322;SDS011;67583;50.616;-3.404;2023-07-16T11:28:49;9.55;;;2.47;;
78322;SDS011;67583;50.616;-3.404;2023-07-16T11:31:16;7.47;;;2.83;;
78322;SDS011;67583;50.616;-3.404;2023-07-16T11:33:42;6.97;;;2.35;;
78322;SDS011;67583;50.616;-3.404;2023-07-16T11:38:57;6.07;;;2.53;;
78322;SDS011;67583;50.616;-3.404;2023-07-16T11:41:23;7.82;;;2.60;;
78322;SDS011;67583;50.616;-3.404;2023-07-16T11:43:48;6.57;;;2.65;;
78322;SDS011;67583;50.616;-3.404;2023-07-16T11:46:14;4.88;;;2.45;;
78322;SDS011;67583;50.616;-3.404;2023-07-16T11:48:41;4.50;;;2.33;;
78322;SDS011;67583;50.616;-3.404;2023-07-16T11:51:06;4.40;;;2.00;;
78322;SDS011;67583;50.616;-3.404;2023-07-16T11:53:31;6.10;;;2.25;;
78322;SDS011;67583;50.616;-3.404;2023-07-16T11:55:57;10.18;;;2.50;;
78322;SDS011;67583;50.616;-3.404;2023-07-16T11:58:22;6.57;;;2.28;;
78322;SDS011;67583;50.616;-3.404;2023-07-16T12:00:48;4.47;;;2.00;;
78322;SDS011;67583;50.616;-3.404;2023-07-16T12:03:13;6.38;;;2.50;;
78322;SDS011;67583;50.616;-3.404;2023-07-16T12:05:38;5.72;;;3.05;;
78322;SDS011;67583;50.616;-3.404;2023-07-16T12:08:04;6.60;;;2.42;;
78322;SDS011;67583;50.616;-3.404;2023-07-16T12:10:30;7.10;;;2.38;;
78322;SDS011;67583;50.616;-3.404;2023-07-16T12:12:56;5.43;;;2.97;;
78322;SDS011;67583;50.616;-3.404;2023-07-16T12:15:21;8.85;;;2.30;;
78322;SDS011;67583;50.616;-3.404;2023-07-16T12:17:46;7.65;;;2.17;;
78322;SDS011;67583;50.616;-3.404;2023-07-16T12:20:12;4.55;;;1.92;;
78322;SDS011;67583;50.616;-3.404;2023-07-16T12:22:38;7.78;;;3.08;;
78322;SDS011;67583;50.616;-3.404;2023-07-16T12:25:03;6.20;;;2.30;;
78322;SDS011;67583;50.616;-3.404;2023-07-16T12:27:29;4.03;;;2.10;;
78322;SDS011;67583;50.616;-3.404;2023-07-16T12:29:54;6.68;;;2.00;;
78322;SDS011;67583;50.616;-3.404;2023-07-16T12:32:20;5.35;;;2.67;;
78322;SDS011;67583;50.616;-3.404;2023-07-16T12:34:45;8.05;;;2.97;;
78322;SDS011;67583;50.616;-3.404;2023-07-16T12:37:11;6.30;;;2.17;;
78322;SDS011;67583;50.616;-3.404;2023-07-16T12:39:36;4.97;;;2.17;;
78322;SDS011;67583;50.616;-3.404;2023-07-16T12:42:01;6.50;;;2.72;;
78322;SDS011;67583;50.616;-3.404;2023-07-16T12:44:27;7.75;;;2.47;;
78322;SDS011;67583;50.616;-3.404;2023-07-16T12:46:52;6.03;;;2.20;;
78322;SDS011;67583;50.616;-3.404;2023-07-16T12:49:18;5.82;;;2.97;;
78322;SDS011;67583;50.616;-3.404;2023-07-16T12:51:44;8.52;;;3.50;;
78322;SDS011;67583;50.616;-3.404;2023-07-16T12:54:09;6.05;;;2.60;;
78322;SDS011;67583;50.616;-3.404;2023-07-16T12:56:35;8.48;;;2.63;;
78322;SDS011;67583;50.616;-3.404;2023-07-16T12:59:00;5.63;;;2.60;;
78322;SDS011;67583;50.616;-3.404;2023-07-16T13:01:25;6.63;;;2.60;;
78322;SDS011;67583;50.616;-3.404;2023-07-16T13:03:51;8.55;;;2.83;;
78322;SDS011;67583;50.616;-3.404;2023-07-16T13:06:16;6.53;;;2.17;;
78322;SDS011;67583;50.616;-3.404;2023-07-16T13:08:41;6.68;;;2.10;;
78322;SDS011;67583;50.616;-3.404;2023-07-16T13:11:10;4.57;;;2.05;;
78322;SDS011;67583;50.616;-3.404;2023-07-16T13:13:35;3.65;;;1.90;;
78322;SDS011;67583;50.616;-3.404;2023-07-16T13:16:01;4.93;;;1.98;;
78322;SDS011;67583;50.616;-3.404;2023-07-16T13:18:27;5.68;;;2.20;;
78322;SDS011;67583;50.616;-3.404;2023-07-16T13:20:52;4.82;;;2.45;;
78322;SDS011;67583;50.616;-3.404;2023-07-16T13:23:17;2.92;;;2.17;;
78322;SDS011;67583;50.616;-3.404;2023-07-16T13:25:43;6.00;;;2.60;;
78322;SDS011;67583;50.616;-3.404;2023-07-16T13:28:08;4.47;;;2.20;;
78322;SDS011;67583;50.616;-3.404;2023-07-16T13:30:34;4.72;;;2.10;;
78322;SDS011;67583;50.616;-3.404;2023-07-16T13:32:59;5.38;;;2.78;;
78322;SDS011;67583;50.616;-3.404;2023-07-16T13:35:26;3.63;;;2.47;;
78322;SDS011;67583;50.616;-3.404;2023-07-16T13:37:51;3.58;;;2.03;;
78322;SDS011;67583;50.616;-3.404;2023-07-16T13:40:17;4.97;;;2.33;;
78322;SDS011;67583;50.616;-3.404;2023-07-16T13:42:45;5.65;;;1.92;;
78322;SDS011;67583;50.616;-3.404;2023-07-16T13:45:11;3.88;;;1.88;;
78322;SDS011;67583;50.616;-3.404;2023-07-16T13:47:40;3.53;;;1.67;;
78322;SDS011;67583;50.616;-3.404;2023-07-16T13:50:05;6.55;;;3.30;;
78322;SDS011;67583;50.616;-3.404;2023-07-16T13:52:31;6.60;;;2.60;;
78322;SDS011;67583;50.616;-3.404;2023-07-16T13:54:56;7.15;;;2.08;;
78322;SDS011;67583;50.616;-3.404;2023-07-16T13:57:22;7.43;;;2.30;;
78322;SDS011;67583;50.616;-3.404;2023-07-16T13:59:47;4.63;;;2.95;;
78322;SDS011;67583;50.616;-3.404;2023-07-16T14:02:12;7.63;;;3.28;;
78322;SDS011;67583;50.616;-3.404;2023-07-16T14:04:38;6.22;;;2.50;;
78322;SDS011;67583;50.616;-3.404;2023-07-16T14:07:04;6.55;;;2.63;;
78322;SDS011;67583;50.616;-3.404;2023-07-16T14:09:29;6.57;;;3.22;;
78322;SDS011;67583;50.616;-3.404;2023-07-16T14:11:55;10.07;;;3.38;;
78322;SDS011;67583;50.616;-3.404;2023-07-16T14:14:21;10.70;;;3.33;;
78322;SDS011;67583;50.616;-3.404;2023-07-16T14:16:47;6.10;;;2.70;;
78322;SDS011;67583;50.616;-3.404;2023-07-16T14:19:12;8.50;;;3.03;;
78322;SDS011;67583;50.616;-3.404;2023-07-16T14:21:38;6.22;;;2.80;;
78322;SDS011;67583;50.616;-3.404;2023-07-16T14:24:04;4.25;;;2.67;;
78322;SDS011;67583;50.616;-3.404;2023-07-16T14:26:29;6.88;;;2.70;;
78322;SDS011;67583;50.616;-3.404;2023-07-16T14:28:55;6.65;;;2.90;;
78322;SDS011;67583;50.616;-3.404;2023-07-16T14:31:20;6.43;;;2.10;;